createdAt,value
2022-08-08T00:00:55.094Z,94784.19
2022-08-08T00:01:17.203Z,94697.91
2022-08-08T00:02:42.957Z,94785.78
2022-08-08T00:04:16.342Z,94776.25
2022-08-08T00:05:43.550Z,94773.25
2022-08-08T00:07:25.148Z,94775.84
2022-08-08T00:08:31.513Z,94645.38
2022-08-08T00:10:12.318Z,94761.06
2022-08-08T00:11:25.118Z,94674.63
2022-08-08T00:12:35.786Z,94791.56
2022-08-08T00:14:14.830Z,94719.41
2022-08-08T00:15:56.044Z,94782.66
2022-08-08T00:16:55.919Z,94780.66
2022-08-08T00:18:03.825Z,94767.44
2022-08-08T00:19:16.323Z,94786.72
2022-08-08T00:20:30.178Z,94777.38
2022-08-08T00:21:39.531Z,94784.72
2022-08-08T00:22:45.517Z,94770.03
2022-08-08T00:23:51.955Z,94717.88
2022-08-08T00:24:56.435Z,94732.97
2022-08-08T00:26:01.318Z,94775.41
2022-08-08T00:27:05.967Z,94751.09
2022-08-08T00:28:08.098Z,94673.34
2022-08-08T00:29:45.493Z,94795.94
2022-08-08T00:31:00.298Z,94658.22
2022-08-08T00:32:21.039Z,94717.31
2022-08-08T00:33:47.785Z,94751.53
2022-08-08T00:35:15.403Z,94793.75
2022-08-08T00:36:35.083Z,94800.75
2022-08-08T00:37:47.035Z,94790.06
2022-08-08T00:41:07.076Z,94794.03
2022-08-08T00:41:10.841Z,94751.78
2022-08-08T00:42:33.317Z,94792.16
2022-08-08T00:44:07.578Z,94756.13
2022-08-08T00:45:32.174Z,94786.56
2022-08-08T00:46:55.857Z,94785.91
2022-08-08T00:48:30.351Z,94632.44
2022-08-08T00:50:03.148Z,94793.09
2022-08-08T00:51:38.180Z,94785.50
2022-08-08T00:52:48.706Z,94786.00
2022-08-08T00:54:28.828Z,94779.69
2022-08-08T00:55:56.586Z,94787.50
2022-08-08T00:57:23.588Z,94785.78
2022-08-08T00:58:54.689Z,94781.84
2022-08-08T01:00:09.884Z,94793.47
2022-08-08T01:01:37.785Z,94786.59
2022-08-08T01:03:59.285Z,94790.56
2022-08-08T01:04:29.584Z,94790.00
2022-08-08T01:06:03.903Z,94784.63
2022-08-08T01:07:55.853Z,94794.41
2022-08-08T01:09:35.025Z,94802.41
2022-08-08T01:11:08.198Z,94791.78
2022-08-08T01:12:29.690Z,94786.97
2022-08-08T01:13:44.015Z,94789.72
2022-08-08T01:15:06.958Z,94790.78
2022-08-08T01:16:34.094Z,94802.03
2022-08-08T01:17:57.004Z,94792.47
2022-08-08T01:19:52.035Z,94796.53
2022-08-08T01:21:15.372Z,94795.50
2022-08-08T01:22:57.099Z,94804.59
2022-08-08T01:24:13.676Z,94794.94
2022-08-08T01:25:40.830Z,94756.13
2022-08-08T01:27:44.583Z,94705.56
2022-08-08T01:29:35.473Z,94800.94
2022-08-08T01:31:34.290Z,94798.13
2022-08-08T01:33:24.135Z,94813.28
2022-08-08T01:35:11.342Z,94812.25
2022-08-08T01:36:23.639Z,94805.88
2022-08-08T01:37:58.234Z,94810.09
2022-08-08T01:39:50.409Z,94670.09
2022-08-08T01:41:23.842Z,94680.41
2022-08-08T01:42:39.596Z,94783.72
2022-08-08T01:43:58.937Z,94696.53
2022-08-08T01:45:26.422Z,94813.00
2022-08-08T01:46:40.453Z,94641.09
2022-08-08T01:48:30.405Z,94807.31
2022-08-08T01:49:45.115Z,94811.31
2022-08-08T01:51:00.583Z,94817.31
2022-08-08T01:53:01.154Z,94813.66
2022-08-08T01:55:16.692Z,94809.94
2022-08-08T01:56:27.274Z,94807.94
2022-08-08T01:56:47.383Z,94813.69
2022-08-08T01:58:11.916Z,94811.25
2022-08-08T01:59:16.137Z,94815.75
2022-08-08T02:00:23.013Z,94812.63
2022-08-08T02:02:00.207Z,94814.44
2022-08-08T02:03:55.203Z,94812.97
2022-08-08T02:05:08.544Z,94786.94
2022-08-08T02:06:31.672Z,94810.59
2022-08-08T02:08:08.330Z,94821.44
2022-08-08T02:10:01.245Z,94736.16
2022-08-08T02:11:23.752Z,94814.75
2022-08-08T02:12:37.157Z,94812.84
2022-08-08T02:13:53.683Z,94823.13
2022-08-08T02:15:14.165Z,94705.81
2022-08-08T02:16:34.731Z,94818.03
2022-08-08T02:18:10.393Z,94823.72
2022-08-08T02:19:26.852Z,94824.56
2022-08-08T02:21:30.264Z,94687.38
2022-08-08T02:22:52.318Z,94826.34
2022-08-08T02:24:06.742Z,94762.97
2022-08-08T02:25:48.438Z,94711.28
2022-08-08T02:26:50.525Z,94828.00
2022-08-08T02:28:01.787Z,94823.13
2022-08-08T02:29:41.429Z,94832.50
2022-08-08T02:31:01.955Z,94835.22
2022-08-08T02:32:22.858Z,94821.78
2022-08-08T02:34:08.170Z,94760.13
2022-08-08T02:35:35.830Z,94829.66
2022-08-08T02:37:09.935Z,94829.13
2022-08-08T02:38:32.908Z,94831.56
2022-08-08T02:40:00.827Z,94833.94
2022-08-08T02:41:58.592Z,94836.44
2022-08-08T02:44:43.139Z,94833.78
2022-08-08T02:44:58.146Z,94831.97
2022-08-08T02:46:14.761Z,94830.94
2022-08-08T02:47:29.611Z,94765.19
2022-08-08T02:48:45.140Z,94833.56
2022-08-08T02:49:51.386Z,94833.44
2022-08-08T02:51:21.039Z,94821.94
2022-08-08T02:52:56.532Z,94833.97
2022-08-08T02:54:05.188Z,94831.88
2022-08-08T02:55:19.817Z,94836.47
2022-08-08T02:56:42.421Z,94835.59
2022-08-08T02:57:57.675Z,94832.63
2022-08-08T02:59:37.523Z,94834.34
2022-08-08T03:01:08.854Z,94836.22
2022-08-08T03:02:20.462Z,94831.56
2022-08-08T03:05:05.204Z,94834.97
2022-08-08T03:05:45.459Z,94836.00
2022-08-08T03:06:58.586Z,94839.22
2022-08-08T03:08:06.966Z,94844.75
2022-08-08T03:09:23.257Z,94844.09
2022-08-08T03:10:44.133Z,94849.22
2022-08-08T03:12:02.877Z,94839.63
2022-08-08T03:15:59.450Z,94851.53
2022-08-08T03:16:00.294Z,94850.22
2022-08-08T03:16:35.412Z,94853.72
2022-08-08T03:17:52.073Z,94766.97
2022-08-08T03:19:20.006Z,94800.34
2022-08-08T03:20:17.279Z,94844.22
2022-08-08T03:21:15.727Z,94849.94
2022-08-08T03:22:38.969Z,94847.34
2022-08-08T03:23:56.712Z,94827.59
2022-08-08T03:24:47.742Z,94853.25
2022-08-08T03:25:46.818Z,94852.13
2022-08-08T03:26:52.834Z,94782.97
2022-08-08T03:28:07.184Z,94703.59
2022-08-08T03:29:14.960Z,94750.28
2022-08-08T03:30:19.156Z,94763.75
2022-08-08T03:32:06.266Z,94807.28
2022-08-08T03:33:55.815Z,94752.22
2022-08-08T03:34:35.679Z,94739.94
2022-08-08T03:35:41.440Z,94815.66
2022-08-08T03:36:44.482Z,94790.09
2022-08-08T03:38:54.845Z,94785.81
2022-08-08T03:39:14.341Z,94746.53
2022-08-08T03:40:30.286Z,94861.88
2022-08-08T03:42:28.151Z,94803.91
2022-08-08T03:42:52.724Z,94757.91
2022-08-08T03:43:59.589Z,94885.41
2022-08-08T03:44:58.509Z,94777.31
2022-08-08T03:46:03.398Z,94840.88
2022-08-08T03:47:14.129Z,94766.34
2022-08-08T03:48:21.380Z,94849.16
2022-08-08T03:49:58.379Z,94860.44
2022-08-08T03:50:50.583Z,94856.19
2022-08-08T03:51:56.378Z,94880.63
2022-08-08T03:52:54.567Z,94872.91
2022-08-08T03:53:55.011Z,94889.09
2022-08-08T03:55:10.730Z,94871.13
2022-08-08T03:56:10.530Z,94828.91
2022-08-08T03:58:36.269Z,94830.13
2022-08-08T03:58:53.078Z,94872.69
2022-08-08T04:00:03.015Z,94854.84
2022-08-08T04:01:24.637Z,94861.47
2022-08-08T04:02:33.459Z,94880.28
2022-08-08T04:03:59.029Z,94881.69
2022-08-08T04:04:52.860Z,94796.84
2022-08-08T04:05:50.392Z,94769.53
2022-08-08T04:06:57.360Z,94876.72
2022-08-08T04:08:00.858Z,94806.31
2022-08-08T04:09:10.419Z,94873.44
2022-08-08T04:10:10.127Z,94843.44
2022-08-08T04:11:11.429Z,94804.75
2022-08-08T04:12:15.684Z,94864.06
2022-08-08T04:13:18.208Z,94883.16
2022-08-08T04:14:34.876Z,94860.47
2022-08-08T04:15:38.346Z,94887.44
2022-08-08T04:16:38.619Z,94876.34
2022-08-08T04:17:58.524Z,94717.28
2022-08-08T04:18:54.860Z,94878.31
2022-08-08T04:19:52.182Z,94858.72
2022-08-08T04:20:49.246Z,94885.75
2022-08-08T04:21:46.059Z,94779.16
2022-08-08T04:22:43.332Z,94906.97
2022-08-08T04:24:05.408Z,94802.16
2022-08-08T04:24:59.320Z,94710.22
2022-08-08T04:25:56.215Z,94885.53
2022-08-08T04:26:57.178Z,94793.28
2022-08-08T04:28:02.268Z,94789.72
2022-08-08T04:29:11.882Z,94869.34
2022-08-08T04:30:17.283Z,94868.41
2022-08-08T04:31:57.316Z,94867.63
2022-08-08T04:32:34.217Z,94889.13
2022-08-08T04:33:41.731Z,94778.63
2022-08-08T04:34:42.992Z,94860.53
2022-08-08T04:35:52.864Z,94865.00
2022-08-08T04:36:49.586Z,94890.84
2022-08-08T04:37:46.893Z,94898.16
2022-08-08T04:38:47.397Z,94896.75
2022-08-08T04:40:03.785Z,94812.59
2022-08-08T04:41:02.431Z,94882.31
2022-08-08T04:41:59.227Z,94876.63
2022-08-08T04:43:01.173Z,94900.97
2022-08-08T04:43:58.655Z,94900.63
2022-08-08T04:44:57.823Z,94899.91
2022-08-08T04:45:55.820Z,94901.66
2022-08-08T04:46:52.674Z,94885.41
2022-08-08T04:47:49.644Z,94895.81
2022-08-08T04:48:46.368Z,94890.41
2022-08-08T04:49:58.495Z,94811.28
2022-08-08T04:50:55.884Z,94910.50
2022-08-08T04:51:57.064Z,94892.38
2022-08-08T04:53:00.684Z,94810.31
2022-08-08T04:54:39.316Z,94900.44
2022-08-08T04:55:18.681Z,94902.16
2022-08-08T04:56:17.600Z,94881.09
2022-08-08T04:57:14.657Z,94910.09
2022-08-08T04:58:14.394Z,94874.31
2022-08-08T04:59:15.647Z,94903.78
2022-08-08T05:00:13.638Z,94842.69
2022-08-08T05:01:16.606Z,94890.41
2022-08-08T05:02:15.255Z,94775.09
2022-08-08T05:03:18.779Z,94799.56
2022-08-08T05:04:34.202Z,94906.94
2022-08-08T05:05:44.758Z,94916.88
2022-08-08T05:06:42.555Z,94923.97
2022-08-08T05:07:42.718Z,94909.53
2022-08-08T05:08:39.792Z,94882.66
2022-08-08T05:09:38.180Z,94913.56
2022-08-08T05:10:36.056Z,94819.97
2022-08-08T05:11:38.844Z,94825.69
2022-08-08T05:12:37.051Z,94905.91
2022-08-08T05:13:57.809Z,94797.91
2022-08-08T05:14:57.553Z,94880.31
2022-08-08T05:16:50.777Z,94832.47
2022-08-08T05:17:12.995Z,94887.44
2022-08-08T05:18:12.122Z,94918.63
2022-08-08T05:20:04.445Z,94908.78
2022-08-08T05:20:29.689Z,94907.19
2022-08-08T05:21:26.967Z,94916.66
2022-08-08T05:22:24.688Z,94817.31
2022-08-08T05:23:21.670Z,94903.59
2022-08-08T05:24:18.439Z,94918.22
2022-08-08T05:25:22.832Z,94930.19
2022-08-08T05:26:19.727Z,94882.56
2022-08-08T05:27:17.179Z,94896.91
2022-08-08T05:28:14.779Z,94899.22
2022-08-08T05:29:12.997Z,94923.19
2022-08-08T05:30:11.193Z,94912.56
2022-08-08T05:31:19.521Z,94827.09
2022-08-08T05:32:27.227Z,94893.84
2022-08-08T05:33:24.665Z,94889.53
2022-08-08T05:34:44.042Z,94882.41
2022-08-08T05:35:42.972Z,94918.97
2022-08-08T05:36:41.615Z,94913.75
2022-08-08T05:37:53.418Z,94908.28
2022-08-08T05:38:52.323Z,94909.28
2022-08-08T05:39:55.056Z,94901.88
2022-08-08T05:40:57.867Z,94915.56
2022-08-08T05:41:55.881Z,94914.78
2022-08-08T05:43:01.986Z,94899.03
2022-08-08T05:44:31.096Z,94911.75
2022-08-08T05:45:31.627Z,94905.44
2022-08-08T05:46:41.600Z,94658.72
2022-08-08T05:48:00.679Z,94851.97
2022-08-08T05:48:59.411Z,94914.50
2022-08-08T05:49:59.076Z,94924.44
2022-08-08T05:50:59.069Z,94792.06
2022-08-08T05:52:10.637Z,94911.50
2022-08-08T05:53:53.863Z,94836.25
2022-08-08T05:54:49.821Z,94935.88
2022-08-08T05:56:10.323Z,94835.59
2022-08-08T05:57:04.730Z,94884.34
2022-08-08T05:58:05.161Z,94930.03
2022-08-08T05:59:12.435Z,94924.75
2022-08-08T06:00:23.710Z,94810.72
2022-08-08T06:01:56.897Z,94888.34
2022-08-08T06:03:02.314Z,94872.72
2022-08-08T06:04:07.787Z,94912.19
2022-08-08T06:05:35.217Z,94800.28
2022-08-08T06:06:34.983Z,94865.34
2022-08-08T06:07:33.212Z,94859.34
2022-08-08T06:08:40.893Z,94832.94
2022-08-08T06:09:59.595Z,94930.31
2022-08-08T06:10:59.567Z,94903.53
2022-08-08T06:12:00.695Z,94827.72
2022-08-08T06:13:00.922Z,94931.19
2022-08-08T06:13:59.505Z,94857.97
2022-08-08T06:14:58.331Z,94853.88
2022-08-08T06:15:56.703Z,94887.13
2022-08-08T06:17:00.935Z,94913.47
2022-08-08T06:18:20.538Z,94900.16
2022-08-08T06:19:19.545Z,94900.94
2022-08-08T06:20:21.136Z,94920.75
2022-08-08T06:21:28.130Z,94924.06
2022-08-08T06:22:35.140Z,94902.75
2022-08-08T06:23:48.669Z,94891.88
2022-08-08T06:24:51.214Z,94925.06
2022-08-08T06:26:43.361Z,94836.97
2022-08-08T06:27:36.202Z,94877.81
2022-08-08T06:28:50.249Z,94929.63
2022-08-08T06:30:05.510Z,94797.56
2022-08-08T06:31:09.628Z,94930.19
2022-08-08T06:32:17.211Z,94933.00
2022-08-08T06:33:36.963Z,94894.34
2022-08-08T06:34:39.856Z,94943.09
2022-08-08T06:36:06.220Z,94911.25
2022-08-08T06:37:24.107Z,94941.50
2022-08-08T06:38:29.012Z,94928.34
2022-08-08T06:39:34.054Z,94937.91
2022-08-08T06:40:36.924Z,94939.31
2022-08-08T06:41:42.070Z,94920.44
2022-08-08T06:42:56.010Z,94926.25
2022-08-08T06:43:58.346Z,94942.75
2022-08-08T06:44:58.670Z,94945.66
2022-08-08T06:45:56.376Z,94922.56
2022-08-08T06:46:53.931Z,94893.63
2022-08-08T06:47:52.558Z,94941.06
2022-08-08T06:49:01.267Z,94913.28
2022-08-08T06:49:59.273Z,94949.28
2022-08-08T06:50:58.253Z,94933.25
2022-08-08T06:51:57.782Z,94946.59
2022-08-08T06:52:54.887Z,94951.38
2022-08-08T06:53:56.658Z,94945.28
2022-08-08T06:55:00.302Z,94960.06
2022-08-08T06:56:02.038Z,94903.09
2022-08-08T06:57:00.613Z,94935.44
2022-08-08T06:58:00.776Z,94924.81
2022-08-08T06:59:00.617Z,94858.66
2022-08-08T07:00:10.700Z,94938.03
2022-08-08T07:02:16.413Z,94890.38
2022-08-08T07:02:35.451Z,94945.13
2022-08-08T07:04:37.714Z,94929.88
2022-08-08T07:05:20.369Z,94946.72
2022-08-08T07:06:22.889Z,94945.53
2022-08-08T07:07:37.166Z,94926.75
2022-08-08T07:08:38.732Z,94953.69
2022-08-08T07:09:59.338Z,94808.69
2022-08-08T07:11:00.290Z,94951.81
2022-08-08T07:11:59.635Z,94933.09
2022-08-08T07:13:06.044Z,94950.25
2022-08-08T07:14:07.584Z,94867.28
2022-08-08T07:15:32.260Z,94963.16
2022-08-08T07:16:54.027Z,94952.28
2022-08-08T07:18:01.575Z,94825.00
2022-08-08T07:19:06.250Z,94941.81
2022-08-08T07:20:07.571Z,94841.84
2022-08-08T07:21:18.717Z,94913.59
2022-08-08T07:22:24.776Z,94715.63
2022-08-08T07:24:00.967Z,94948.81
2022-08-08T07:25:06.584Z,94955.88
2022-08-08T07:26:04.534Z,94949.31
2022-08-08T07:27:09.263Z,94886.38
2022-08-08T07:28:18.689Z,94951.47
2022-08-08T07:29:58.681Z,94928.41
2022-08-08T07:30:34.998Z,94959.25
2022-08-08T07:31:35.357Z,94853.19
2022-08-08T07:32:33.264Z,94911.34
2022-08-08T07:33:37.938Z,94945.84
2022-08-08T07:34:48.340Z,94948.94
2022-08-08T07:35:56.416Z,94946.66
2022-08-08T07:36:57.570Z,94943.03
2022-08-08T07:38:09.926Z,94950.81
2022-08-08T07:39:22.545Z,94830.13
2022-08-08T07:40:30.157Z,94862.16
2022-08-08T07:41:58.680Z,94911.00
2022-08-08T07:42:49.658Z,94831.97
2022-08-08T07:43:51.375Z,94881.28
2022-08-08T07:44:51.377Z,94949.00
2022-08-08T07:46:04.982Z,94921.16
2022-08-08T07:47:05.101Z,94892.25
2022-08-08T07:48:05.244Z,94957.59
2022-08-08T07:49:02.101Z,94944.56
2022-08-08T07:50:01.790Z,94930.22
2022-08-08T07:51:02.557Z,94922.31
2022-08-08T07:52:03.365Z,94910.50
2022-08-08T07:53:52.176Z,94843.75
2022-08-08T07:54:46.866Z,94941.50
2022-08-08T07:55:48.942Z,94955.94
2022-08-08T07:57:11.365Z,94937.22
2022-08-08T07:58:21.396Z,94930.69
2022-08-08T07:59:23.783Z,94941.03
2022-08-08T08:00:30.372Z,94950.13
2022-08-08T08:02:35.041Z,94854.88
2022-08-08T08:02:57.561Z,94897.75
2022-08-08T08:04:01.923Z,94943.81
2022-08-08T08:05:03.807Z,94825.25
2022-08-08T08:06:05.562Z,94938.38
2022-08-08T08:07:02.996Z,94895.03
2022-08-08T08:08:20.458Z,94877.22
2022-08-08T08:09:26.581Z,94847.91
2022-08-08T08:10:30.168Z,94935.22
2022-08-08T08:11:51.259Z,94872.78
2022-08-08T08:12:54.937Z,94942.19
2022-08-08T08:14:10.620Z,94927.66
2022-08-08T08:15:10.113Z,94860.69
2022-08-08T08:16:17.027Z,94951.06
2022-08-08T08:17:19.350Z,94916.44
2022-08-08T08:18:31.648Z,94951.44
2022-08-08T08:19:45.787Z,94916.31
2022-08-08T08:20:43.606Z,94738.22
2022-08-08T08:21:57.237Z,94929.22
2022-08-08T08:22:57.553Z,94910.38
2022-08-08T08:23:54.250Z,94940.75
2022-08-08T08:25:07.444Z,94948.91
2022-08-08T08:26:05.401Z,94826.34
2022-08-08T08:27:02.985Z,94854.97
2022-08-08T08:28:00.565Z,94946.25
2022-08-08T08:29:00.118Z,94834.75
2022-08-08T08:29:59.443Z,94931.00
2022-08-08T08:30:58.635Z,94929.28
2022-08-08T08:31:57.644Z,94930.16
2022-08-08T08:32:55.274Z,94841.34
2022-08-08T08:33:52.591Z,94922.75
2022-08-08T08:34:51.693Z,94922.91
2022-08-08T08:36:18.726Z,94838.03
2022-08-08T08:37:08.080Z,94934.53
2022-08-08T08:38:17.966Z,94868.69
2022-08-08T08:39:17.314Z,94917.81
2022-08-08T08:40:20.774Z,94924.09
2022-08-08T08:41:23.932Z,94872.00
2022-08-08T08:42:31.975Z,94866.38
2022-08-08T08:43:35.247Z,94870.53
2022-08-08T08:44:32.252Z,94923.50
2022-08-08T08:45:29.227Z,94810.53
2022-08-08T08:46:28.623Z,94919.50
2022-08-08T08:47:27.237Z,94854.88
2022-08-08T08:48:49.391Z,94912.41
2022-08-08T08:49:46.799Z,94802.72
2022-08-08T08:50:46.135Z,94921.00
2022-08-08T08:51:51.671Z,94917.78
2022-08-08T08:53:00.006Z,94920.50
2022-08-08T08:54:06.549Z,94922.94
2022-08-08T08:55:04.950Z,94912.53
2022-08-08T08:56:02.990Z,94896.50
2022-08-08T08:57:02.619Z,94826.59
2022-08-08T08:58:32.867Z,94910.34
2022-08-08T08:59:59.503Z,94910.28
2022-08-08T09:01:08.487Z,94884.97
2022-08-08T09:02:19.204Z,94913.81
2022-08-08T09:03:21.083Z,94827.72
2022-08-08T09:04:38.779Z,94913.25
2022-08-08T09:05:53.743Z,94843.97
2022-08-08T09:06:57.609Z,94915.38
2022-08-08T09:08:12.334Z,94904.75
2022-08-08T09:09:35.562Z,94909.19
2022-08-08T09:10:40.726Z,94905.25
2022-08-08T09:11:47.442Z,94888.00
2022-08-08T09:13:00.259Z,94896.34
2022-08-08T09:13:57.634Z,94816.66
2022-08-08T09:14:57.919Z,94902.16
2022-08-08T09:16:03.550Z,94818.84
2022-08-08T09:17:09.689Z,94829.09
2022-08-08T09:18:10.072Z,94923.47
2022-08-08T09:19:11.172Z,94876.94
2022-08-08T09:21:59.702Z,94886.25
2022-08-08T09:22:02.628Z,94896.84
2022-08-08T09:22:47.118Z,94888.22
2022-08-08T09:23:44.371Z,94891.31
2022-08-08T09:24:44.848Z,94888.66
2022-08-08T09:26:02.417Z,94895.38
2022-08-08T09:27:06.234Z,94875.63
2022-08-08T09:28:06.346Z,94860.97
2022-08-08T09:29:08.393Z,94878.22
2022-08-08T09:30:14.797Z,94835.47
2022-08-08T09:31:42.742Z,94798.13
2022-08-08T09:33:12.276Z,94841.19
2022-08-08T09:34:32.280Z,94876.28
2022-08-08T09:35:37.303Z,94857.03
2022-08-08T09:36:39.520Z,94879.88
2022-08-08T09:38:02.708Z,94849.31
2022-08-08T09:39:03.692Z,94880.78
2022-08-08T09:40:20.170Z,94838.03
2022-08-08T09:41:27.540Z,94845.28
2022-08-08T09:42:44.247Z,94821.19
2022-08-08T09:44:06.462Z,94849.38
2022-08-08T09:46:01.791Z,94794.91
2022-08-08T09:46:57.323Z,94807.22
2022-08-08T09:48:16.144Z,94807.94
2022-08-08T09:49:42.165Z,94713.56
2022-08-08T09:50:43.961Z,94837.22
2022-08-08T09:52:06.153Z,94860.00
2022-08-08T09:53:23.465Z,94811.63
2022-08-08T09:54:50.299Z,94792.69
2022-08-08T09:56:04.511Z,94845.19
2022-08-08T09:57:16.133Z,94844.31
2022-08-08T09:58:25.917Z,94868.84
2022-08-08T10:00:01.638Z,94855.84
2022-08-08T10:00:53.318Z,94854.44
2022-08-08T10:01:59.972Z,94838.00
2022-08-08T10:03:04.355Z,94721.44
2022-08-08T10:04:05.501Z,94832.34
2022-08-08T10:05:14.369Z,94741.63
2022-08-08T10:06:16.763Z,94826.66
2022-08-08T10:07:15.739Z,94760.25
2022-08-08T10:08:13.151Z,94703.69
2022-08-08T10:09:11.464Z,94711.41
2022-08-08T10:10:10.533Z,94728.19
2022-08-08T10:11:12.026Z,94821.72
2022-08-08T10:12:38.809Z,94817.88
2022-08-08T10:13:59.156Z,94827.59
2022-08-08T10:15:01.686Z,94833.63
2022-08-08T10:16:03.362Z,94717.72
2022-08-08T10:18:03.502Z,94842.41
2022-08-08T10:18:30.197Z,94747.94
2022-08-08T10:19:45.970Z,94771.63
2022-08-08T10:21:22.752Z,94839.84
2022-08-08T10:22:24.569Z,94718.59
2022-08-08T10:23:44.016Z,94831.50
2022-08-08T10:24:47.016Z,94829.84
2022-08-08T10:25:56.108Z,94830.59
2022-08-08T10:27:01.437Z,94853.94
2022-08-08T10:27:58.739Z,94833.81
2022-08-08T10:29:04.831Z,94810.25
2022-08-08T10:30:05.270Z,94814.91
2022-08-08T10:31:25.255Z,94807.06
2022-08-08T10:32:48.271Z,94786.13
2022-08-08T10:34:19.304Z,94716.47
2022-08-08T10:35:11.761Z,94823.25
2022-08-08T10:36:24.381Z,94829.94
2022-08-08T10:37:30.296Z,94733.38
2022-08-08T10:38:32.308Z,94818.34
2022-08-08T10:39:31.780Z,94811.22
2022-08-08T10:40:45.652Z,94794.13
2022-08-08T10:42:13.282Z,94814.06
2022-08-08T10:43:06.678Z,94758.94
2022-08-08T10:44:04.628Z,94775.16
2022-08-08T10:45:09.131Z,94822.03
2022-08-08T10:46:26.138Z,94805.56
2022-08-08T10:47:30.502Z,94797.41
2022-08-08T10:48:56.932Z,94792.19
2022-08-08T10:50:02.135Z,94770.41
2022-08-08T10:50:59.583Z,94814.06
2022-08-08T10:51:56.340Z,94821.34
2022-08-08T10:53:01.563Z,94812.25
2022-08-08T10:54:00.111Z,94813.41
2022-08-08T10:55:05.224Z,94744.94
2022-08-08T10:56:03.622Z,94699.22
2022-08-08T10:57:04.436Z,94798.13
2022-08-08T10:58:05.883Z,94808.59
2022-08-08T10:59:09.272Z,94815.72
2022-08-08T11:00:09.423Z,94734.03
2022-08-08T11:01:11.131Z,94786.69
2022-08-08T11:02:11.115Z,94800.38
2022-08-08T11:03:16.175Z,94839.81
2022-08-08T11:04:13.067Z,94703.69
2022-08-08T11:05:14.762Z,94818.78
2022-08-08T11:06:16.445Z,94688.50
2022-08-08T11:08:29.970Z,94788.63
2022-08-08T11:08:53.075Z,94775.69
2022-08-08T11:09:50.688Z,94772.97
2022-08-08T11:10:47.423Z,94764.94
2022-08-08T11:12:05.067Z,94707.38
2022-08-08T11:14:25.375Z,94699.03
2022-08-08T11:15:30.816Z,94689.69
2022-08-08T11:16:34.467Z,94819.50
2022-08-08T11:18:01.379Z,94814.19
2022-08-08T11:18:54.743Z,94525.34
2022-08-08T11:19:52.989Z,94819.81
2022-08-08T11:20:52.334Z,94778.78
2022-08-08T11:21:55.409Z,94666.47
2022-08-08T11:22:55.785Z,94796.16
2022-08-08T11:24:01.996Z,94792.66
2022-08-08T11:25:14.239Z,94810.41
2022-08-08T11:26:27.478Z,94694.53
2022-08-08T11:27:37.023Z,94712.06
2022-08-08T11:28:38.686Z,94699.22
2022-08-08T11:29:50.823Z,94793.84
2022-08-08T11:30:59.858Z,94766.41
2022-08-08T11:31:58.437Z,94790.09
2022-08-08T11:33:05.185Z,94710.28
2022-08-08T11:34:23.443Z,94712.41
2022-08-08T11:35:42.294Z,94668.47
2022-08-08T11:36:42.049Z,94672.56
2022-08-08T11:38:39.703Z,94740.72
2022-08-08T11:39:00.830Z,94750.78
2022-08-08T11:40:05.739Z,94664.97
2022-08-08T11:41:04.530Z,94770.22
2022-08-08T11:42:03.279Z,94775.09
2022-08-08T11:43:06.772Z,94796.22
2022-08-08T11:44:05.478Z,94690.66
2022-08-08T11:45:04.491Z,94778.75
2022-08-08T11:46:14.552Z,94728.03
2022-08-08T11:47:17.427Z,94775.09
2022-08-08T11:48:20.574Z,94752.47
2022-08-08T11:49:18.345Z,94695.72
2022-08-08T11:50:23.152Z,94786.59
2022-08-08T11:51:30.581Z,94789.94
2022-08-08T11:52:43.354Z,94737.28
2022-08-08T11:53:47.191Z,94740.25
2022-08-08T11:54:56.299Z,94753.50
2022-08-08T11:55:53.221Z,94781.47
2022-08-08T11:56:56.389Z,94760.19
2022-08-08T11:58:14.434Z,94629.19
2022-08-08T11:59:12.257Z,94773.09
2022-08-08T12:00:15.677Z,94631.56
2022-08-08T12:01:16.404Z,94768.56
2022-08-08T12:02:41.506Z,94751.81
2022-08-08T12:03:34.220Z,94732.47
2022-08-08T12:04:31.206Z,94740.25
2022-08-08T12:05:37.053Z,94776.03
2022-08-08T12:06:34.100Z,94780.19
2022-08-08T12:07:31.865Z,94783.28
2022-08-08T12:08:37.975Z,94758.13
2022-08-08T12:09:59.693Z,94665.34
2022-08-08T12:10:53.008Z,94774.31
2022-08-08T12:11:49.780Z,94660.03
2022-08-08T12:12:49.108Z,94775.53
2022-08-08T12:14:03.672Z,94764.00
2022-08-08T12:15:03.135Z,94682.72
2022-08-08T12:16:10.736Z,94780.16
2022-08-08T12:17:07.476Z,94772.44
2022-08-08T12:18:21.575Z,94764.91
2022-08-08T12:19:37.583Z,94780.28
2022-08-08T12:20:41.984Z,94767.59
2022-08-08T12:21:59.938Z,94760.69
2022-08-08T12:22:57.133Z,94704.91
2022-08-08T12:24:14.817Z,94769.78
2022-08-08T12:25:30.037Z,94638.34
2022-08-08T12:26:41.443Z,94736.06
2022-08-08T12:27:45.516Z,94759.16
2022-08-08T12:28:55.228Z,94735.31
2022-08-08T12:30:00.020Z,94776.25
2022-08-08T12:31:06.995Z,94765.84
2022-08-08T12:32:09.640Z,94748.53
2022-08-08T12:33:17.968Z,94718.81
2022-08-08T12:34:15.192Z,94675.91
2022-08-08T12:35:21.841Z,94715.63
2022-08-08T12:36:19.650Z,94759.94
2022-08-08T12:37:40.873Z,94758.38
2022-08-08T12:38:55.527Z,94745.59
2022-08-08T12:40:01.105Z,94497.84
2022-08-08T12:41:10.531Z,94740.47
2022-08-08T12:42:21.173Z,94765.94
2022-08-08T12:43:32.741Z,94757.22
2022-08-08T12:44:41.895Z,94756.59
2022-08-08T12:45:59.745Z,94722.63
2022-08-08T12:47:02.777Z,94762.66
2022-08-08T12:48:09.717Z,94746.16
2022-08-08T12:49:40.174Z,94760.97
2022-08-08T12:50:47.022Z,94731.22
2022-08-08T12:51:58.670Z,94617.78
2022-08-08T12:52:57.721Z,94752.28
2022-08-08T12:53:58.706Z,94740.28
2022-08-08T12:55:14.322Z,94741.28
2022-08-08T12:56:19.258Z,94492.03
2022-08-08T12:57:26.221Z,94745.72
2022-08-08T12:58:24.976Z,94740.94
2022-08-08T12:59:36.741Z,94647.53
2022-08-08T13:00:42.208Z,94714.03
2022-08-08T13:01:41.178Z,94730.44
2022-08-08T13:02:51.341Z,94746.97
2022-08-08T13:03:52.159Z,94734.38
2022-08-08T13:04:51.591Z,94727.84
2022-08-08T13:06:03.170Z,94698.53
2022-08-08T13:07:07.307Z,94618.13
2022-08-08T13:08:20.504Z,94736.69
2022-08-08T13:09:17.436Z,94716.50
2022-08-08T13:10:19.760Z,94692.09
2022-08-08T13:12:24.470Z,94717.09
2022-08-08T13:12:52.763Z,94608.56
2022-08-08T13:14:11.354Z,94702.03
2022-08-08T13:15:13.859Z,94719.88
2022-08-08T13:16:21.478Z,94718.28
2022-08-08T13:17:54.373Z,94693.91
2022-08-08T13:18:58.327Z,94724.03
2022-08-08T13:20:06.453Z,94631.69
2022-08-08T13:21:05.857Z,94688.72
2022-08-08T13:22:04.951Z,94572.75
2022-08-08T13:23:30.806Z,94607.06
2022-08-08T13:24:39.461Z,94698.31
2022-08-08T13:25:39.039Z,94672.53
2022-08-08T13:26:36.629Z,94732.13
2022-08-08T13:27:35.487Z,94724.31
2022-08-08T13:28:33.042Z,94726.00
2022-08-08T13:29:38.033Z,94672.66
2022-08-08T13:30:38.123Z,94697.94
2022-08-08T13:31:35.128Z,94667.19
2022-08-08T13:32:39.761Z,94717.38
2022-08-08T13:33:42.181Z,94603.00
2022-08-08T13:34:40.556Z,94585.63
2022-08-08T13:35:43.142Z,94723.50
2022-08-08T13:36:41.930Z,94603.19
2022-08-08T13:38:04.992Z,94681.06
2022-08-08T13:39:00.252Z,94631.00
2022-08-08T13:40:02.412Z,94680.31
2022-08-08T13:41:00.729Z,94686.53
2022-08-08T13:42:01.308Z,94709.50
2022-08-08T13:42:59.027Z,94714.44
2022-08-08T13:43:57.798Z,94709.91
2022-08-08T13:44:56.760Z,94710.25
2022-08-08T13:45:53.930Z,94608.09
2022-08-08T13:46:59.530Z,94714.75